sensor_id;sensor_type;location;lat;lon;timestamp;P1;durP1;ratioP1;P2;durP2;ratioP2
80159;SDS011;69486;59.082;37.928;2023-05-06T00:01:01;2.45;;;1.80;;
80159;SDS011;69486;59.082;37.928;2023-05-06T00:03:27;3.00;;;1.65;;
80159;SDS011;69486;59.082;37.928;2023-05-06T00:05:53;2.55;;;1.42;;
80159;SDS011;69486;59.082;37.928;2023-05-06T00:08:18;2.75;;;1.40;;
80159;SDS011;69486;59.082;37.928;2023-05-06T00:10:44;3.15;;;1.33;;
80159;SDS011;69486;59.082;37.928;2023-05-06T00:13:10;2.83;;;1.30;;
80159;SDS011;69486;59.082;37.928;2023-05-06T00:15:36;3.28;;;1.60;;
80159;SDS011;69486;59.082;37.928;2023-05-06T00:18:02;3.30;;;1.20;;
80159;SDS011;69486;59.082;37.928;2023-05-06T00:20:28;3.15;;;1.70;;
80159;SDS011;69486;59.082;37.928;2023-05-06T00:22:54;3.60;;;1.63;;
80159;SDS011;69486;59.082;37.928;2023-05-06T00:25:19;5.25;;;1.70;;
80159;SDS011;69486;59.082;37.928;2023-05-06T00:27:45;6.38;;;2.28;;
80159;SDS011;69486;59.082;37.928;2023-05-06T00:30:11;10.43;;;3.40;;
80159;SDS011;69486;59.082;37.928;2023-05-06T00:32:37;7.47;;;3.55;;
80159;SDS011;69486;59.082;37.928;2023-05-06T00:35:03;5.00;;;2.50;;
80159;SDS011;69486;59.082;37.928;2023-05-06T00:37:28;14.65;;;4.22;;
80159;SDS011;69486;59.082;37.928;2023-05-06T00:39:54;10.02;;;3.38;;
80159;SDS011;69486;59.082;37.928;2023-05-06T00:42:20;8.05;;;3.17;;
80159;SDS011;69486;59.082;37.928;2023-05-06T00:44:48;10.68;;;4.10;;
80159;SDS011;69486;59.082;37.928;2023-05-06T00:47:13;10.05;;;4.20;;
80159;SDS011;69486;59.082;37.928;2023-05-06T00:49:39;11.52;;;4.40;;
80159;SDS011;69486;59.082;37.928;2023-05-06T00:52:05;7.32;;;3.85;;
80159;SDS011;69486;59.082;37.928;2023-05-06T00:54:31;11.35;;;3.72;;
80159;SDS011;69486;59.082;37.928;2023-05-06T00:56:57;4.05;;;1.88;;
80159;SDS011;69486;59.082;37.928;2023-05-06T00:59:23;8.48;;;2.20;;
80159;SDS011;69486;59.082;37.928;2023-05-06T01:01:48;7.50;;;2.10;;
80159;SDS011;69486;59.082;37.928;2023-05-06T01:04:14;8.80;;;2.85;;
80159;SDS011;69486;59.082;37.928;2023-05-06T01:06:54;18.08;;;5.80;;
80159;SDS011;69486;59.082;37.928;2023-05-06T01:09:23;19.90;;;5.38;;
80159;SDS011;69486;59.082;37.928;2023-05-06T01:12:03;25.05;;;7.82;;
80159;SDS011;69486;59.082;37.928;2023-05-06T01:17:02;30.88;;;8.85;;
80159;SDS011;69486;59.082;37.928;2023-05-06T01:19:32;40.25;;;11.52;;
80159;SDS011;69486;59.082;37.928;2023-05-06T01:22:01;35.75;;;11.88;;
80159;SDS011;69486;59.082;37.928;2023-05-06T01:24:39;33.67;;;10.88;;
80159;SDS011;69486;59.082;37.928;2023-05-06T01:27:05;46.28;;;15.95;;
80159;SDS011;69486;59.082;37.928;2023-05-06T01:29:31;42.38;;;15.43;;
80159;SDS011;69486;59.082;37.928;2023-05-06T01:31:58;51.50;;;17.23;;
80159;SDS011;69486;59.082;37.928;2023-05-06T01:34:36;58.03;;;18.27;;
80159;SDS011;69486;59.082;37.928;2023-05-06T01:37:06;51.40;;;21.95;;
80159;SDS011;69486;59.082;37.928;2023-05-06T01:39:33;43.90;;;18.98;;
80159;SDS011;69486;59.082;37.928;2023-05-06T01:41:59;43.38;;;18.80;;
80159;SDS011;69486;59.082;37.928;2023-05-06T01:44:26;45.83;;;16.70;;
80159;SDS011;69486;59.082;37.928;2023-05-06T01:46:53;41.95;;;17.05;;
80159;SDS011;69486;59.082;37.928;2023-05-06T01:49:20;36.35;;;15.35;;
80159;SDS011;69486;59.082;37.928;2023-05-06T01:51:47;50.42;;;19.85;;
80159;SDS011;69486;59.082;37.928;2023-05-06T01:54:12;49.72;;;18.98;;
80159;SDS011;69486;59.082;37.928;2023-05-06T01:56:38;48.80;;;17.27;;
80159;SDS011;69486;59.082;37.928;2023-05-06T01:59:04;44.00;;;16.10;;
80159;SDS011;69486;59.082;37.928;2023-05-06T02:01:30;45.55;;;14.25;;
80159;SDS011;69486;59.082;37.928;2023-05-06T02:03:55;43.15;;;15.20;;
80159;SDS011;69486;59.082;37.928;2023-05-06T02:06:21;28.75;;;9.45;;
80159;SDS011;69486;59.082;37.928;2023-05-06T02:08:47;19.73;;;7.43;;
80159;SDS011;69486;59.082;37.928;2023-05-06T02:11:13;16.17;;;7.07;;
80159;SDS011;69486;59.082;37.928;2023-05-06T02:13:39;25.17;;;6.40;;
80159;SDS011;69486;59.082;37.928;2023-05-06T02:16:04;19.52;;;5.65;;
80159;SDS011;69486;59.082;37.928;2023-05-06T02:18:30;15.07;;;5.43;;
80159;SDS011;69486;59.082;37.928;2023-05-06T02:20:56;18.05;;;5.55;;
80159;SDS011;69486;59.082;37.928;2023-05-06T02:23:22;17.90;;;6.05;;
80159;SDS011;69486;59.082;37.928;2023-05-06T02:25:47;18.52;;;6.00;;
80159;SDS011;69486;59.082;37.928;2023-05-06T02:28:14;17.17;;;5.78;;
80159;SDS011;69486;59.082;37.928;2023-05-06T02:30:40;12.30;;;4.20;;
80159;SDS011;69486;59.082;37.928;2023-05-06T02:33:05;21.52;;;6.28;;
80159;SDS011;69486;59.082;37.928;2023-05-06T02:35:31;21.60;;;6.72;;
80159;SDS011;69486;59.082;37.928;2023-05-06T02:37:57;22.45;;;6.45;;
80159;SDS011;69486;59.082;37.928;2023-05-06T02:40:23;19.73;;;7.18;;
80159;SDS011;69486;59.082;37.928;2023-05-06T02:42:48;24.13;;;6.32;;
80159;SDS011;69486;59.082;37.928;2023-05-06T02:45:14;20.02;;;6.50;;
80159;SDS011;69486;59.082;37.928;2023-05-06T02:47:40;16.20;;;5.45;;
80159;SDS011;69486;59.082;37.928;2023-05-06T02:50:05;14.10;;;5.35;;
80159;SDS011;69486;59.082;37.928;2023-05-06T02:52:31;13.32;;;5.05;;
80159;SDS011;69486;59.082;37.928;2023-05-06T02:54:58;16.05;;;4.90;;
80159;SDS011;69486;59.082;37.928;2023-05-06T02:57:24;20.10;;;5.30;;
80159;SDS011;69486;59.082;37.928;2023-05-06T02:59:50;13.55;;;5.35;;
80159;SDS011;69486;59.082;37.928;2023-05-06T03:02:16;20.42;;;5.45;;
80159;SDS011;69486;59.082;37.928;2023-05-06T03:04:41;14.93;;;4.85;;
80159;SDS011;69486;59.082;37.928;2023-05-06T03:07:07;10.02;;;4.50;;
80159;SDS011;69486;59.082;37.928;2023-05-06T03:09:33;18.85;;;5.40;;
80159;SDS011;69486;59.082;37.928;2023-05-06T03:11:58;13.48;;;4.45;;
80159;SDS011;69486;59.082;37.928;2023-05-06T03:14:24;27.25;;;8.10;;
80159;SDS011;69486;59.082;37.928;2023-05-06T03:16:50;31.25;;;7.95;;
80159;SDS011;69486;59.082;37.928;2023-05-06T03:19:16;31.10;;;8.65;;
80159;SDS011;69486;59.082;37.928;2023-05-06T03:21:41;22.38;;;7.65;;
80159;SDS011;69486;59.082;37.928;2023-05-06T03:24:07;17.80;;;5.85;;
80159;SDS011;69486;59.082;37.928;2023-05-06T03:26:33;27.73;;;8.15;;
80159;SDS011;69486;59.082;37.928;2023-05-06T03:28:59;22.10;;;8.00;;
80159;SDS011;69486;59.082;37.928;2023-05-06T03:31:24;29.77;;;9.05;;
80159;SDS011;69486;59.082;37.928;2023-05-06T03:33:50;14.88;;;6.32;;
80159;SDS011;69486;59.082;37.928;2023-05-06T03:36:15;14.95;;;6.13;;
80159;SDS011;69486;59.082;37.928;2023-05-06T03:38:41;33.58;;;9.52;;
80159;SDS011;69486;59.082;37.928;2023-05-06T03:41:07;18.65;;;7.22;;
80159;SDS011;69486;59.082;37.928;2023-05-06T03:43:32;20.80;;;7.47;;
80159;SDS011;69486;59.082;37.928;2023-05-06T03:45:58;23.02;;;6.88;;
80159;SDS011;69486;59.082;37.928;2023-05-06T03:48:24;20.80;;;7.53;;
80159;SDS011;69486;59.082;37.928;2023-05-06T03:50:50;17.92;;;5.43;;
80159;SDS011;69486;59.082;37.928;2023-05-06T03:53:16;16.75;;;6.78;;
80159;SDS011;69486;59.082;37.928;2023-05-06T03:55:41;24.67;;;9.02;;
80159;SDS011;69486;59.082;37.928;2023-05-06T03:58:07;28.17;;;9.82;;
80159;SDS011;69486;59.082;37.928;2023-05-06T04:00:32;22.83;;;7.60;;
80159;SDS011;69486;59.082;37.928;2023-05-06T04:02:58;33.03;;;10.88;;
80159;SDS011;69486;59.082;37.928;2023-05-06T04:05:24;31.42;;;9.88;;
80159;SDS011;69486;59.082;37.928;2023-05-06T04:07:49;38.20;;;12.52;;
80159;SDS011;69486;59.082;37.928;2023-05-06T04:10:15;31.65;;;10.52;;
80159;SDS011;69486;59.082;37.928;2023-05-06T04:12:41;35.25;;;10.25;;
80159;SDS011;69486;59.082;37.928;2023-05-06T04:15:06;34.53;;;11.23;;
80159;SDS011;69486;59.082;37.928;2023-05-06T04:17:32;31.98;;;11.00;;
80159;SDS011;69486;59.082;37.928;2023-05-06T04:19:58;25.83;;;8.63;;
80159;SDS011;69486;59.082;37.928;2023-05-06T04:22:31;15.35;;;5.53;;
80159;SDS011;69486;59.082;37.928;2023-05-06T04:24:57;26.67;;;6.95;;
80159;SDS011;69486;59.082;37.928;2023-05-06T04:27:25;17.45;;;5.47;;
80159;SDS011;69486;59.082;37.928;2023-05-06T04:29:52;15.55;;;4.75;;
80159;SDS011;69486;59.082;37.928;2023-05-06T04:32:18;17.38;;;4.97;;
80159;SDS011;69486;59.082;37.928;2023-05-06T04:34:43;12.55;;;4.35;;
80159;SDS011;69486;59.082;37.928;2023-05-06T04:37:11;25.73;;;7.57;;
80159;SDS011;69486;59.082;37.928;2023-05-06T04:39:38;21.95;;;6.93;;
80159;SDS011;69486;59.082;37.928;2023-05-06T04:42:03;12.40;;;4.28;;
80159;SDS011;69486;59.082;37.928;2023-05-06T04:44:29;13.35;;;3.50;;
80159;SDS011;69486;59.082;37.928;2023-05-06T04:46:55;15.27;;;4.22;;
80159;SDS011;69486;59.082;37.928;2023-05-06T04:49:20;13.45;;;4.25;;
80159;SDS011;69486;59.082;37.928;2023-05-06T04:51:46;11.63;;;4.65;;
80159;SDS011;69486;59.082;37.928;2023-05-06T04:54:12;22.60;;;6.47;;
80159;SDS011;69486;59.082;37.928;2023-05-06T04:56:37;19.98;;;5.95;;
80159;SDS011;69486;59.082;37.928;2023-05-06T04:59:03;17.15;;;5.18;;
80159;SDS011;69486;59.082;37.928;2023-05-06T05:01:29;22.20;;;6.63;;
80159;SDS011;69486;59.082;37.928;2023-05-06T05:03:55;15.85;;;5.57;;
80159;SDS011;69486;59.082;37.928;2023-05-06T05:06:20;9.90;;;3.90;;
80159;SDS011;69486;59.082;37.928;2023-05-06T05:08:46;7.55;;;2.80;;
80159;SDS011;69486;59.082;37.928;2023-05-06T05:11:12;11.82;;;3.70;;
80159;SDS011;69486;59.082;37.928;2023-05-06T05:13:38;10.88;;;3.63;;
80159;SDS011;69486;59.082;37.928;2023-05-06T05:16:03;7.72;;;2.97;;
80159;SDS011;69486;59.082;37.928;2023-05-06T05:18:29;15.82;;;4.78;;
80159;SDS011;69486;59.082;37.928;2023-05-06T05:20:55;11.40;;;4.05;;
80159;SDS011;69486;59.082;37.928;2023-05-06T05:23:21;10.57;;;3.22;;
80159;SDS011;69486;59.082;37.928;2023-05-06T05:25:46;9.95;;;2.75;;
80159;SDS011;69486;59.082;37.928;2023-05-06T05:28:12;11.82;;;4.13;;
80159;SDS011;69486;59.082;37.928;2023-05-06T05:30:37;9.18;;;3.70;;
80159;SDS011;69486;59.082;37.928;2023-05-06T05:33:03;9.30;;;3.53;;
80159;SDS011;69486;59.082;37.928;2023-05-06T05:35:29;12.70;;;3.78;;
80159;SDS011;69486;59.082;37.928;2023-05-06T05:37:55;8.55;;;2.97;;
80159;SDS011;69486;59.082;37.928;2023-05-06T05:40:21;12.57;;;3.80;;
80159;SDS011;69486;59.082;37.928;2023-05-06T05:42:46;12.30;;;5.15;;
80159;SDS011;69486;59.082;37.928;2023-05-06T05:45:12;14.95;;;5.97;;
80159;SDS011;69486;59.082;37.928;2023-05-06T05:47:37;16.20;;;4.38;;
80159;SDS011;69486;59.082;37.928;2023-05-06T05:50:03;9.55;;;3.85;;
80159;SDS011;69486;59.082;37.928;2023-05-06T05:52:29;4.07;;;2.20;;
80159;SDS011;69486;59.082;37.928;2023-05-06T05:54:55;8.60;;;1.80;;
80159;SDS011;69486;59.082;37.928;2023-05-06T05:57:21;7.38;;;2.15;;
80159;SDS011;69486;59.082;37.928;2023-05-06T05:59:47;5.93;;;2.60;;
80159;SDS011;69486;59.082;37.928;2023-05-06T06:02:12;10.55;;;3.22;;
80159;SDS011;69486;59.082;37.928;2023-05-06T06:04:38;14.95;;;4.18;;
80159;SDS011;69486;59.082;37.928;2023-05-06T06:07:04;9.68;;;3.13;;
80159;SDS011;69486;59.082;37.928;2023-05-06T06:09:29;8.27;;;3.20;;
80159;SDS011;69486;59.082;37.928;2023-05-06T06:11:55;7.68;;;1.95;;
80159;SDS011;69486;59.082;37.928;2023-05-06T06:14:21;10.30;;;2.90;;
80159;SDS011;69486;59.082;37.928;2023-05-06T06:16:47;18.30;;;6.57;;
80159;SDS011;69486;59.082;37.928;2023-05-06T06:19:13;24.08;;;9.50;;
80159;SDS011;69486;59.082;37.928;2023-05-06T06:21:39;15.48;;;4.75;;
80159;SDS011;69486;59.082;37.928;2023-05-06T06:24:04;33.17;;;11.07;;
80159;SDS011;69486;59.082;37.928;2023-05-06T06:26:30;12.40;;;3.42;;
80159;SDS011;69486;59.082;37.928;2023-05-06T06:28:56;9.43;;;2.88;;
80159;SDS011;69486;59.082;37.928;2023-05-06T06:31:21;7.18;;;2.03;;
80159;SDS011;69486;59.082;37.928;2023-05-06T06:33:47;4.55;;;2.10;;
80159;SDS011;69486;59.082;37.928;2023-05-06T06:36:13;7.07;;;2.10;;
80159;SDS011;69486;59.082;37.928;2023-05-06T06:38:38;10.55;;;2.72;;
80159;SDS011;69486;59.082;37.928;2023-05-06T06:41:05;6.13;;;1.98;;
80159;SDS011;69486;59.082;37.928;2023-05-06T06:43:31;8.57;;;2.95;;
80159;SDS011;69486;59.082;37.928;2023-05-06T06:45:57;4.05;;;1.75;;
80159;SDS011;69486;59.082;37.928;2023-05-06T06:48:23;4.38;;;1.85;;
80159;SDS011;69486;59.082;37.928;2023-05-06T06:50:48;6.45;;;2.40;;
80159;SDS011;69486;59.082;37.928;2023-05-06T06:53:14;7.75;;;2.00;;
80159;SDS011;69486;59.082;37.928;2023-05-06T06:55:43;2.90;;;1.27;;
80159;SDS011;69486;59.082;37.928;2023-05-06T06:58:09;3.80;;;1.48;;
80159;SDS011;69486;59.082;37.928;2023-05-06T07:00:35;3.00;;;1.50;;
80159;SDS011;69486;59.082;37.928;2023-05-06T07:03:00;4.95;;;1.85;;
80159;SDS011;69486;59.082;37.928;2023-05-06T07:05:26;5.65;;;2.10;;
80159;SDS011;69486;59.082;37.928;2023-05-06T07:07:52;4.70;;;1.60;;
80159;SDS011;69486;59.082;37.928;2023-05-06T07:10:17;6.95;;;2.55;;
80159;SDS011;69486;59.082;37.928;2023-05-06T07:12:43;5.55;;;2.67;;
80159;SDS011;69486;59.082;37.928;2023-05-06T07:15:09;8.18;;;2.72;;
80159;SDS011;69486;59.082;37.928;2023-05-06T07:17:35;4.43;;;2.00;;
80159;SDS011;69486;59.082;37.928;2023-05-06T07:20:00;2.90;;;1.50;;
80159;SDS011;69486;59.082;37.928;2023-05-06T07:22:26;1.25;;;0.80;;
80159;SDS011;69486;59.082;37.928;2023-05-06T07:24:52;2.53;;;1.25;;
80159;SDS011;69486;59.082;37.928;2023-05-06T07:27:18;2.53;;;0.95;;
80159;SDS011;69486;59.082;37.928;2023-05-06T07:29:44;1.52;;;1.17;;
80159;SDS011;69486;59.082;37.928;2023-05-06T07:32:09;13.43;;;1.40;;
80159;SDS011;69486;59.082;37.928;2023-05-06T07:34:35;5.35;;;0.82;;
80159;SDS011;69486;59.082;37.928;2023-05-06T07:37:01;4.22;;;1.13;;
80159;SDS011;69486;59.082;37.928;2023-05-06T07:39:28;1.20;;;0.80;;
80159;SDS011;69486;59.082;37.928;2023-05-06T07:41:53;1.50;;;0.63;;
80159;SDS011;69486;59.082;37.928;2023-05-06T07:44:19;1.85;;;0.95;;
80159;SDS011;69486;59.082;37.928;2023-05-06T07:46:45;3.50;;;0.88;;
80159;SDS011;69486;59.082;37.928;2023-05-06T07:49:10;2.08;;;0.90;;
80159;SDS011;69486;59.082;37.928;2023-05-06T07:51:36;1.35;;;0.93;;
80159;SDS011;69486;59.082;37.928;2023-05-06T07:54:02;2.05;;;0.90;;
80159;SDS011;69486;59.082;37.928;2023-05-06T07:56:27;5.50;;;2.28;;
80159;SDS011;69486;59.082;37.928;2023-05-06T07:58:53;11.38;;;3.67;;
80159;SDS011;69486;59.082;37.928;2023-05-06T08:01:18;9.20;;;3.78;;
80159;SDS011;69486;59.082;37.928;2023-05-06T08:03:44;10.32;;;3.13;;
80159;SDS011;69486;59.082;37.928;2023-05-06T08:06:10;9.23;;;1.85;;
80159;SDS011;69486;59.082;37.928;2023-05-06T08:08:35;9.07;;;1.70;;
80159;SDS011;69486;59.082;37.928;2023-05-06T08:11:01;4.90;;;1.73;;
80159;SDS011;69486;59.082;37.928;2023-05-06T08:13:27;2.30;;;1.10;;
80159;SDS011;69486;59.082;37.928;2023-05-06T08:15:53;5.35;;;1.38;;
80159;SDS011;69486;59.082;37.928;2023-05-06T08:18:19;2.28;;;1.40;;
80159;SDS011;69486;59.082;37.928;2023-05-06T08:20:44;3.28;;;1.27;;
80159;SDS011;69486;59.082;37.928;2023-05-06T08:23:10;3.58;;;1.70;;
80159;SDS011;69486;59.082;37.928;2023-05-06T08:25:35;4.07;;;1.45;;
80159;SDS011;69486;59.082;37.928;2023-05-06T08:28:01;2.60;;;1.27;;
80159;SDS011;69486;59.082;37.928;2023-05-06T08:30:27;5.93;;;1.77;;
80159;SDS011;69486;59.082;37.928;2023-05-06T08:32:53;7.63;;;1.67;;
80159;SDS011;69486;59.082;37.928;2023-05-06T08:35:18;2.90;;;1.05;;
80159;SDS011;69486;59.082;37.928;2023-05-06T08:37:44;1.45;;;0.90;;
80159;SDS011;69486;59.082;37.928;2023-05-06T08:42:41;1.10;;;0.70;;
80159;SDS011;69486;59.082;37.928;2023-05-06T08:45:10;0.80;;;0.80;;
80159;SDS011;69486;59.082;37.928;2023-05-06T08:47:35;1.20;;;0.77;;
80159;SDS011;69486;59.082;37.928;2023-05-06T08:50:01;0.60;;;0.60;;
80159;SDS011;69486;59.082;37.928;2023-05-06T08:52:27;0.60;;;0.60;;
80159;SDS011;69486;59.082;37.928;2023-05-06T08:54:53;1.08;;;1.00;;
80159;SDS011;69486;59.082;37.928;2023-05-06T08:57:25;1.42;;;0.80;;
80159;SDS011;69486;59.082;37.928;2023-05-06T08:59:52;1.00;;;0.90;;
80159;SDS011;69486;59.082;37.928;2023-05-06T09:02:17;3.63;;;1.40;;
80159;SDS011;69486;59.082;37.928;2023-05-06T09:04:43;5.93;;;1.38;;
80159;SDS011;69486;59.082;37.928;2023-05-06T09:07:09;3.65;;;1.63;;
80159;SDS011;69486;59.082;37.928;2023-05-06T09:09:35;5.13;;;2.03;;
80159;SDS011;69486;59.082;37.928;2023-05-06T09:12:01;4.95;;;2.25;;
80159;SDS011;69486;59.082;37.928;2023-05-06T09:14:27;8.43;;;2.40;;
80159;SDS011;69486;59.082;37.928;2023-05-06T09:16:53;3.75;;;2.58;;
80159;SDS011;69486;59.082;37.928;2023-05-06T09:19:19;11.18;;;3.15;;
80159;SDS011;69486;59.082;37.928;2023-05-06T09:21:46;6.82;;;2.83;;
80159;SDS011;69486;59.082;37.928;2023-05-06T09:24:12;9.77;;;3.17;;
80159;SDS011;69486;59.082;37.928;2023-05-06T09:26:39;14.07;;;3.92;;
80159;SDS011;69486;59.082;37.928;2023-05-06T09:29:05;8.73;;;3.58;;
80159;SDS011;69486;59.082;37.928;2023-05-06T09:31:31;8.68;;;3.30;;
80159;SDS011;69486;59.082;37.928;2023-05-06T09:33:57;6.18;;;2.13;;
80159;SDS011;69486;59.082;37.928;2023-05-06T09:36:24;11.30;;;1.92;;
80159;SDS011;69486;59.082;37.928;2023-05-06T09:38:50;5.65;;;1.95;;
80159;SDS011;69486;59.082;37.928;2023-05-06T09:41:18;4.55;;;1.50;;
80159;SDS011;69486;59.082;37.928;2023-05-06T09:43:45;6.50;;;1.58;;
80159;SDS011;69486;59.082;37.928;2023-05-06T09:46:13;6.30;;;1.95;;
80159;SDS011;69486;59.082;37.928;2023-05-06T09:48:40;9.60;;;1.88;;
80159;SDS011;69486;59.082;37.928;2023-05-06T09:51:06;7.30;;;1.80;;
80159;SDS011;69486;59.082;37.928;2023-05-06T09:53:33;8.27;;;2.55;;
80159;SDS011;69486;59.082;37.928;2023-05-06T09:55:59;9.93;;;2.33;;
80159;SDS011;69486;59.082;37.928;2023-05-06T09:58:25;5.57;;;1.15;;
80159;SDS011;69486;59.082;37.928;2023-05-06T10:00:52;5.70;;;1.88;;
80159;SDS011;69486;59.082;37.928;2023-05-06T10:03:19;2.30;;;1.48;;
80159;SDS011;69486;59.082;37.928;2023-05-06T10:05:45;6.53;;;2.92;;
80159;SDS011;69486;59.082;37.928;2023-05-06T10:08:11;10.20;;;3.28;;
80159;SDS011;69486;59.082;37.928;2023-05-06T10:10:39;11.02;;;3.83;;
80159;SDS011;69486;59.082;37.928;2023-05-06T10:13:06;2.53;;;1.50;;
80159;SDS011;69486;59.082;37.928;2023-05-06T10:15:32;6.05;;;1.73;;
80159;SDS011;69486;59.082;37.928;2023-05-06T10:17:58;6.55;;;2.15;;
80159;SDS011;69486;59.082;37.928;2023-05-06T10:20:25;2.85;;;1.25;;
80159;SDS011;69486;59.082;37.928;2023-05-06T10:22:59;6.00;;;2.10;;
80159;SDS011;69486;59.082;37.928;2023-05-06T10:25:31;7.95;;;2.38;;
80159;SDS011;69486;59.082;37.928;2023-05-06T10:27:58;4.32;;;1.58;;
80159;SDS011;69486;59.082;37.928;2023-05-06T10:30:25;5.43;;;1.80;;
80159;SDS011;69486;59.082;37.928;2023-05-06T10:32:51;3.95;;;1.30;;
80159;SDS011;69486;59.082;37.928;2023-05-06T10:35:22;2.40;;;1.30;;
80159;SDS011;69486;59.082;37.928;2023-05-06T10:37:51;4.57;;;1.27;;
80159;SDS011;69486;59.082;37.928;2023-05-06T10:40:19;3.90;;;1.70;;
80159;SDS011;69486;59.082;37.928;2023-05-06T10:42:45;2.88;;;1.35;;
80159;SDS011;69486;59.082;37.928;2023-05-06T10:45:10;3.83;;;1.17;;
80159;SDS011;69486;59.082;37.928;2023-05-06T10:50:23;1.05;;;0.70;;
80159;SDS011;69486;59.082;37.928;2023-05-06T10:52:50;0.60;;;0.60;;
80159;SDS011;69486;59.082;37.928;2023-05-06T10:55:32;1.27;;;0.90;;
80159;SDS011;69486;59.082;37.928;2023-05-06T10:58:02;2.72;;;0.80;;
80159;SDS011;69486;59.082;37.928;2023-05-06T11:00:31;2.15;;;0.80;;
80159;SDS011;69486;59.082;37.928;2023-05-06T11:03:06;2.72;;;1.02;;
80159;SDS011;69486;59.082;37.928;2023-05-06T11:05:35;3.65;;;1.80;;
80159;SDS011;69486;59.082;37.928;2023-05-06T11:08:10;9.18;;;2.50;;
80159;SDS011;69486;59.082;37.928;2023-05-06T11:10:36;6.25;;;2.08;;
80159;SDS011;69486;59.082;37.928;2023-05-06T11:13:18;5.38;;;1.50;;
80159;SDS011;69486;59.082;37.928;2023-05-06T11:15:44;13.32;;;3.00;;
80159;SDS011;69486;59.082;37.928;2023-05-06T11:21:34;3.15;;;1.48;;
80159;SDS011;69486;59.082;37.928;2023-05-06T11:26:07;1.80;;;0.90;;
80159;SDS011;69486;59.082;37.928;2023-05-06T11:28:33;3.95;;;1.23;;
80159;SDS011;69486;59.082;37.928;2023-05-06T11:30:59;6.18;;;2.70;;
80159;SDS011;69486;59.082;37.928;2023-05-06T11:33:26;11.27;;;4.22;;
80159;SDS011;69486;59.082;37.928;2023-05-06T11:35:52;8.20;;;3.90;;
80159;SDS011;69486;59.082;37.928;2023-05-06T11:38:17;9.50;;;3.72;;
80159;SDS011;69486;59.082;37.928;2023-05-06T11:40:43;6.43;;;1.90;;
80159;SDS011;69486;59.082;37.928;2023-05-06T11:43:12;1.30;;;1.10;;
80159;SDS011;69486;59.082;37.928;2023-05-06T11:45:39;1.80;;;1.10;;
80159;SDS011;69486;59.082;37.928;2023-05-06T11:48:05;1.13;;;1.00;;
80159;SDS011;69486;59.082;37.928;2023-05-06T11:50:31;0.95;;;0.80;;
80159;SDS011;69486;59.082;37.928;2023-05-06T11:52:56;1.25;;;0.90;;
80159;SDS011;69486;59.082;37.928;2023-05-06T11:55:22;5.05;;;1.50;;
80159;SDS011;69486;59.082;37.928;2023-05-06T11:57:48;3.38;;;1.50;;
80159;SDS011;69486;59.082;37.928;2023-05-06T12:00:14;9.68;;;4.20;;
80159;SDS011;69486;59.082;37.928;2023-05-06T12:02:40;10.38;;;2.50;;
80159;SDS011;69486;59.082;37.928;2023-05-06T12:05:05;12.70;;;4.22;;
80159;SDS011;69486;59.082;37.928;2023-05-06T12:07:31;7.20;;;3.08;;
80159;SDS011;69486;59.082;37.928;2023-05-06T12:09:57;8.27;;;3.30;;
80159;SDS011;69486;59.082;37.928;2023-05-06T12:12:23;12.23;;;4.18;;
80159;SDS011;69486;59.082;37.928;2023-05-06T12:14:49;8.40;;;3.30;;
80159;SDS011;69486;59.082;37.928;2023-05-06T12:17:17;8.23;;;2.60;;
80159;SDS011;69486;59.082;37.928;2023-05-06T12:19:43;5.82;;;2.13;;
80159;SDS011;69486;59.082;37.928;2023-05-06T12:22:28;3.17;;;1.38;;
80159;SDS011;69486;59.082;37.928;2023-05-06T12:24:53;5.17;;;1.40;;
80159;SDS011;69486;59.082;37.928;2023-05-06T12:27:34;4.78;;;1.17;;
80159;SDS011;69486;59.082;37.928;2023-05-06T12:30:00;3.75;;;1.92;;
80159;SDS011;69486;59.082;37.928;2023-05-06T12:32:29;4.63;;;1.85;;
80159;SDS011;69486;59.082;37.928;2023-05-06T12:34:55;7.97;;;2.55;;
80159;SDS011;69486;59.082;37.928;2023-05-06T12:37:26;7.22;;;2.40;;
80159;SDS011;69486;59.082;37.928;2023-05-06T12:39:52;5.57;;;2.15;;
80159;SDS011;69486;59.082;37.928;2023-05-06T12:42:19;4.70;;;1.38;;
80159;SDS011;69486;59.082;37.928;2023-05-06T12:44:44;5.82;;;2.00;;
80159;SDS011;69486;59.082;37.928;2023-05-06T12:47:20;9.85;;;2.80;;
80159;SDS011;69486;59.082;37.928;2023-05-06T12:49:47;8.05;;;3.17;;
80159;SDS011;69486;59.082;37.928;2023-05-06T12:52:13;7.78;;;2.47;;
80159;SDS011;69486;59.082;37.928;2023-05-06T12:54:39;8.30;;;3.38;;
80159;SDS011;69486;59.082;37.928;2023-05-06T12:57:04;5.65;;;2.33;;
80159;SDS011;69486;59.082;37.928;2023-05-06T12:59:30;24.98;;;6.53;;
80159;SDS011;69486;59.082;37.928;2023-05-06T13:01:56;13.23;;;4.50;;
80159;SDS011;69486;59.082;37.928;2023-05-06T13:04:22;5.70;;;2.05;;
80159;SDS011;69486;59.082;37.928;2023-05-06T13:06:48;7.30;;;2.42;;
80159;SDS011;69486;59.082;37.928;2023-05-06T13:09:14;11.63;;;4.28;;
80159;SDS011;69486;59.082;37.928;2023-05-06T13:11:40;14.32;;;4.30;;
80159;SDS011;69486;59.082;37.928;2023-05-06T13:14:05;17.88;;;4.70;;
80159;SDS011;69486;59.082;37.928;2023-05-06T13:16:32;14.63;;;4.05;;
80159;SDS011;69486;59.082;37.928;2023-05-06T13:18:58;15.18;;;3.33;;
80159;SDS011;69486;59.082;37.928;2023-05-06T13:21:23;7.85;;;2.08;;
80159;SDS011;69486;59.082;37.928;2023-05-06T13:23:49;46.08;;;19.83;;
80159;SDS011;69486;59.082;37.928;2023-05-06T13:26:15;12.90;;;4.72;;
80159;SDS011;69486;59.082;37.928;2023-05-06T13:28:41;4.90;;;1.60;;
80159;SDS011;69486;59.082;37.928;2023-05-06T13:31:07;3.45;;;1.33;;
80159;SDS011;69486;59.082;37.928;2023-05-06T13:33:33;6.55;;;1.42;;
80159;SDS011;69486;59.082;37.928;2023-05-06T13:35:59;3.70;;;1.60;;
80159;SDS011;69486;59.082;37.928;2023-05-06T13:38:24;5.25;;;0.90;;
80159;SDS011;69486;59.082;37.928;2023-05-06T13:40:50;4.03;;;0.90;;
80159;SDS011;69486;59.082;37.928;2023-05-06T13:43:17;11.70;;;1.40;;
80159;SDS011;69486;59.082;37.928;2023-05-06T13:45:42;2.63;;;1.02;;
80159;SDS011;69486;59.082;37.928;2023-05-06T13:48:11;2.40;;;1.02;;
80159;SDS011;69486;59.082;37.928;2023-05-06T13:50:39;4.85;;;1.15;;
80159;SDS011;69486;59.082;37.928;2023-05-06T13:53:05;2.50;;;1.00;;
80159;SDS011;69486;59.082;37.928;2023-05-06T13:55:30;2.88;;;1.02;;
80159;SDS011;69486;59.082;37.928;2023-05-06T13:57:56;3.53;;;1.08;;
80159;SDS011;69486;59.082;37.928;2023-05-06T14:00:22;3.15;;;1.25;;
80159;SDS011;69486;59.082;37.928;2023-05-06T14:02:47;30.85;;;16.77;;
80159;SDS011;69486;59.082;37.928;2023-05-06T14:05:13;14.45;;;6.47;;
80159;SDS011;69486;59.082;37.928;2023-05-06T14:07:40;45.63;;;23.52;;
80159;SDS011;69486;59.082;37.928;2023-05-06T14:10:06;6.13;;;1.60;;
80159;SDS011;69486;59.082;37.928;2023-05-06T14:12:32;4.72;;;1.98;;
80159;SDS011;69486;59.082;37.928;2023-05-06T14:14:57;1.77;;;1.15;;
80159;SDS011;69486;59.082;37.928;2023-05-06T14:17:23;3.47;;;1.58;;
80159;SDS011;69486;59.082;37.928;2023-05-06T14:19:49;2.08;;;1.17;;
80159;SDS011;69486;59.082;37.928;2023-05-06T14:22:15;1.58;;;1.00;;
80159;SDS011;69486;59.082;37.928;2023-05-06T14:24:41;1.58;;;0.60;;
80159;SDS011;69486;59.082;37.928;2023-05-06T14:27:06;1.23;;;0.55;;
80159;SDS011;69486;59.082;37.928;2023-05-06T14:29:32;2.40;;;0.90;;
80159;SDS011;69486;59.082;37.928;2023-05-06T14:31:58;6.43;;;1.60;;
80159;SDS011;69486;59.082;37.928;2023-05-06T14:34:23;3.97;;;1.90;;
80159;SDS011;69486;59.082;37.928;2023-05-06T14:36:50;2.97;;;1.67;;